createdAt,value
2022-11-25T00:00:36.083Z,5.82
2022-11-25T00:03:03.976Z,6.50
2022-11-25T00:05:30.786Z,6.25
2022-11-25T00:07:57.721Z,6.10
2022-11-25T00:10:24.479Z,6.95
2022-11-25T00:12:51.157Z,6.55
2022-11-25T00:15:17.812Z,7.38
2022-11-25T00:17:44.841Z,6.22
2022-11-25T00:20:11.871Z,6.05
2022-11-25T00:22:38.698Z,6.25
2022-11-25T00:25:05.875Z,6.45
2022-11-25T00:27:32.555Z,6.20
2022-11-25T00:29:59.225Z,6.53
2022-11-25T00:32:25.910Z,5.85
2022-11-25T00:34:52.626Z,6.07
2022-11-25T00:37:19.694Z,6.53
2022-11-25T00:39:46.490Z,6.10
2022-11-25T00:42:32.013Z,6.95
2022-11-25T00:44:58.791Z,5.90
2022-11-25T00:47:25.483Z,5.97
2022-11-25T00:49:54.908Z,6.10
2022-11-25T00:52:25.011Z,6.15
2022-11-25T00:54:52.849Z,6.27
2022-11-25T00:57:21.541Z,6.38
2022-11-25T01:03:39.416Z,6.20
2022-11-25T01:06:08.986Z,6.40
2022-11-25T01:08:37.237Z,6.65
2022-11-25T01:11:06.902Z,7.03
2022-11-25T01:13:34.404Z,6.43
2022-11-25T01:16:02.420Z,5.78
2022-11-25T01:18:30.496Z,6.35
2022-11-25T01:21:22.312Z,6.18
2022-11-25T01:23:49.925Z,6.72
2022-11-25T01:26:23.169Z,5.78
2022-11-25T01:28:54.466Z,6.30
2022-11-25T01:31:24.075Z,6.15
2022-11-25T01:33:56.670Z,6.70
2022-11-25T01:36:23.969Z,6.53
2022-11-25T01:38:53.767Z,6.35
2022-11-25T01:41:21.668Z,6.35
2022-11-25T01:44:10.081Z,6.53
2022-11-25T01:46:48.882Z,6.43
2022-11-25T01:49:20.636Z,6.07
2022-11-25T01:52:18.051Z,6.25
2022-11-25T01:55:02.601Z,6.00
2022-11-25T01:57:50.600Z,6.60
2022-11-25T02:00:17.605Z,6.03
2022-11-25T02:02:46.399Z,6.32
2022-11-25T02:05:18.228Z,6.55
2022-11-25T02:07:48.374Z,6.40
2022-11-25T02:10:21.365Z,6.32
2022-11-25T02:12:48.763Z,6.43
2022-11-25T02:15:16.831Z,5.75
2022-11-25T02:17:44.715Z,6.25
2022-11-25T02:20:17.218Z,6.55
2022-11-25T02:23:14.917Z,5.63
2022-11-25T02:25:43.789Z,6.32
2022-11-25T02:28:23.838Z,5.90
2022-11-25T02:30:51.521Z,6.57
2022-11-25T02:33:18.846Z,6.20
2022-11-25T02:35:56.120Z,6.20
2022-11-25T02:38:24.540Z,6.40
2022-11-25T02:41:05.233Z,5.68
2022-11-25T02:43:32.051Z,5.88
2022-11-25T02:46:08.798Z,6.85
2022-11-25T02:49:07.460Z,6.07
2022-11-25T02:51:28.307Z,6.75
2022-11-25T02:53:56.676Z,6.53
2022-11-25T02:56:28.414Z,5.97
2022-11-25T02:58:55.233Z,5.90
2022-11-25T03:01:22.217Z,6.50
2022-11-25T03:03:49.258Z,6.15
2022-11-25T03:06:16.249Z,6.30
2022-11-25T03:08:43.078Z,5.90
2022-11-25T03:11:09.935Z,5.53
2022-11-25T03:13:36.689Z,6.32
2022-11-25T03:16:03.646Z,6.97
2022-11-25T03:18:30.422Z,5.75
2022-11-25T03:20:57.187Z,5.47
2022-11-25T03:23:24.378Z,5.90
2022-11-25T03:25:51.115Z,6.20
2022-11-25T03:28:17.806Z,6.15
2022-11-25T03:30:44.830Z,6.78
2022-11-25T03:33:11.632Z,7.25
2022-11-25T03:35:38.543Z,5.65
2022-11-25T03:38:05.280Z,5.72
2022-11-25T03:40:32.023Z,5.80
2022-11-25T03:42:58.739Z,6.22
2022-11-25T03:45:25.475Z,5.68
2022-11-25T03:47:52.148Z,6.85
2022-11-25T03:50:19.065Z,5.90
2022-11-25T03:52:45.836Z,5.68
2022-11-25T03:55:13.205Z,5.85
2022-11-25T03:57:40.846Z,6.03
2022-11-25T04:00:09.400Z,5.45
2022-11-25T04:02:36.108Z,5.82
2022-11-25T04:05:03.218Z,5.50
2022-11-25T04:07:30.014Z,5.85
2022-11-25T04:09:57.094Z,6.28
2022-11-25T04:12:43.127Z,5.60
2022-11-25T04:15:10.103Z,6.03
2022-11-25T04:17:36.866Z,5.78
2022-11-25T04:20:04.256Z,5.28
2022-11-25T04:22:31.050Z,5.60
2022-11-25T04:24:57.764Z,6.15
2022-11-25T04:27:24.526Z,6.13
2022-11-25T04:29:51.184Z,6.45
2022-11-25T04:32:17.921Z,5.82
2022-11-25T04:34:44.694Z,5.65
2022-11-25T04:37:11.497Z,6.57
2022-11-25T04:39:38.298Z,6.00
2022-11-25T04:42:23.869Z,5.35
2022-11-25T04:45:07.581Z,5.45
2022-11-25T04:47:38.578Z,5.03
2022-11-25T04:50:08.699Z,5.93
2022-11-25T04:52:35.394Z,5.83
2022-11-25T04:55:02.077Z,6.68
2022-11-25T04:57:28.790Z,9.98
2022-11-25T04:59:55.449Z,9.07
2022-11-25T05:02:25.516Z,6.05
2022-11-25T05:04:54.423Z,5.40
2022-11-25T05:07:22.893Z,5.30
2022-11-25T05:09:49.619Z,6.43
2022-11-25T05:12:19.590Z,5.63
2022-11-25T05:14:46.612Z,5.70
2022-11-25T05:17:19.443Z,5.25
2022-11-25T05:19:46.349Z,6.30
2022-11-25T05:22:15.124Z,6.00
2022-11-25T05:24:41.829Z,5.38
2022-11-25T05:27:09.314Z,6.28
2022-11-25T05:29:36.332Z,6.22
2022-11-25T05:32:03.546Z,6.43
2022-11-25T05:34:30.368Z,5.82
2022-11-25T05:36:57.544Z,5.97
2022-11-25T05:39:24.387Z,5.75
2022-11-25T05:41:51.052Z,6.57
2022-11-25T05:44:22.673Z,6.00
2022-11-25T05:46:50.337Z,5.65
2022-11-25T05:49:18.360Z,6.47
2022-11-25T05:51:45.606Z,6.57
2022-11-25T05:54:12.572Z,6.75
2022-11-25T05:56:39.681Z,5.90
2022-11-25T05:59:06.480Z,7.30
2022-11-25T06:01:33.707Z,7.03
2022-11-25T06:04:02.168Z,7.50
2022-11-25T06:06:29.255Z,6.25
2022-11-25T06:08:56.154Z,6.13
2022-11-25T06:11:23.121Z,7.55
2022-11-25T06:13:49.891Z,6.20
2022-11-25T06:16:22.018Z,7.03
2022-11-25T06:18:49.411Z,6.03
2022-11-25T06:21:16.790Z,6.30
2022-11-25T06:23:45.517Z,6.85
2022-11-25T06:26:18.105Z,6.65
2022-11-25T06:28:45.364Z,7.63
2022-11-25T06:31:15.514Z,6.47
2022-11-25T06:33:43.049Z,6.40
2022-11-25T06:36:17.233Z,5.93
2022-11-25T06:38:45.838Z,6.03
2022-11-25T06:41:13.132Z,6.57
2022-11-25T06:43:39.888Z,6.15
2022-11-25T06:46:09.414Z,6.35
2022-11-25T06:48:37.139Z,7.57
2022-11-25T06:51:07.121Z,6.28
2022-11-25T06:53:34.979Z,5.90
2022-11-25T06:56:10.975Z,6.28
2022-11-25T06:58:38.103Z,7.63
2022-11-25T07:01:08.218Z,6.10
2022-11-25T07:03:35.492Z,7.53
2022-11-25T07:06:02.652Z,5.95
2022-11-25T07:08:33.986Z,6.20
2022-11-25T07:11:06.597Z,6.28
2022-11-25T07:13:34.237Z,5.97
2022-11-25T07:16:05.799Z,6.22
2022-11-25T07:18:35.441Z,6.10
2022-11-25T07:21:04.455Z,6.38
2022-11-25T07:23:31.710Z,6.45
2022-11-25T07:26:07.570Z,7.25
2022-11-25T07:28:34.840Z,5.95
2022-11-25T07:31:24.809Z,6.43
2022-11-25T07:33:57.395Z,6.47
2022-11-25T07:36:25.082Z,6.47
2022-11-25T07:38:51.984Z,6.93
2022-11-25T07:41:21.535Z,6.85
2022-11-25T07:43:51.161Z,7.18
2022-11-25T07:46:31.327Z,6.22
2022-11-25T07:49:05.347Z,6.20
2022-11-25T07:51:33.693Z,7.95
2022-11-25T07:54:01.882Z,5.90
2022-11-25T07:56:29.536Z,6.13
2022-11-25T07:58:57.463Z,7.10
2022-11-25T08:01:24.662Z,6.32
2022-11-25T08:03:52.563Z,6.38
2022-11-25T08:06:27.492Z,7.97
2022-11-25T08:08:56.495Z,7.28
2022-11-25T08:11:29.498Z,7.00
2022-11-25T08:13:57.068Z,6.53
2022-11-25T08:16:27.267Z,7.00
2022-11-25T08:18:55.430Z,7.18
2022-11-25T08:21:22.594Z,6.28
2022-11-25T08:23:49.864Z,5.82
2022-11-25T08:26:19.870Z,6.57
2022-11-25T08:28:47.350Z,6.20
2022-11-25T08:31:21.562Z,6.53
2022-11-25T08:33:49.389Z,6.10
2022-11-25T08:36:16.774Z,6.40
2022-11-25T08:38:45.211Z,6.72
2022-11-25T08:41:14.734Z,6.47
2022-11-25T08:43:41.648Z,6.80
2022-11-25T08:46:14.501Z,5.75
2022-11-25T08:48:41.656Z,6.30
2022-11-25T08:51:12.157Z,6.53
2022-11-25T08:53:40.276Z,6.60
2022-11-25T08:56:08.180Z,6.30
2022-11-25T08:58:35.585Z,7.13
2022-11-25T09:01:03.089Z,8.13
2022-11-25T09:03:33.823Z,7.78
2022-11-25T09:06:01.573Z,6.50
2022-11-25T09:08:30.317Z,6.43
2022-11-25T09:10:57.850Z,6.30
2022-11-25T09:13:24.864Z,5.88
2022-11-25T09:15:54.705Z,6.93
2022-11-25T09:18:26.008Z,5.90
2022-11-25T09:20:54.097Z,6.65
2022-11-25T09:23:21.227Z,6.45
2022-11-25T09:25:55.558Z,6.45
2022-11-25T09:28:23.075Z,5.30
2022-11-25T09:30:50.115Z,5.88
2022-11-25T09:33:17.176Z,5.85
2022-11-25T09:35:44.227Z,5.95
2022-11-25T09:38:11.059Z,6.60
2022-11-25T09:40:47.370Z,5.97
2022-11-25T09:43:48.293Z,5.22
2022-11-25T09:46:42.591Z,5.97
2022-11-25T09:49:33.271Z,6.28
2022-11-25T09:52:21.998Z,6.35
2022-11-25T09:54:58.992Z,6.35
2022-11-25T09:57:48.332Z,5.40
2022-11-25T10:00:18.788Z,5.50
2022-11-25T10:03:06.663Z,6.22
2022-11-25T10:05:58.913Z,5.25
2022-11-25T10:08:29.970Z,5.68
2022-11-25T10:13:44.649Z,5.20
2022-11-25T10:16:35.365Z,5.18
2022-11-25T10:19:13.083Z,5.65
2022-11-25T10:21:40.120Z,5.57
2022-11-25T10:24:14.629Z,5.90
2022-11-25T10:26:45.095Z,5.57
2022-11-25T10:29:16.326Z,5.85
2022-11-25T10:31:44.554Z,5.43
2022-11-25T10:34:28.487Z,5.80
2022-11-25T10:36:57.252Z,5.32
2022-11-25T10:39:28.038Z,6.78
2022-11-25T10:42:14.040Z,5.50
2022-11-25T10:44:41.843Z,6.05
2022-11-25T10:47:32.505Z,6.82
2022-11-25T10:50:08.072Z,6.65
2022-11-25T10:52:40.858Z,5.93
2022-11-25T10:55:25.685Z,6.00
2022-11-25T10:57:53.432Z,7.38
2022-11-25T11:00:34.057Z,6.20
2022-11-25T11:03:24.309Z,6.00
2022-11-25T11:05:53.622Z,6.63
2022-11-25T11:08:25.923Z,6.00
2022-11-25T11:11:11.469Z,6.82
2022-11-25T11:13:39.344Z,6.97
2022-11-25T11:16:23.797Z,5.53
2022-11-25T11:18:51.596Z,6.50
2022-11-25T11:21:31.478Z,6.60
2022-11-25T11:23:59.800Z,6.00
2022-11-25T11:26:33.494Z,6.20
2022-11-25T11:29:17.149Z,6.20
2022-11-25T11:32:02.031Z,6.93
2022-11-25T11:35:00.427Z,6.40
2022-11-25T11:37:56.596Z,6.95
2022-11-25T11:40:38.287Z,6.65
2022-11-25T11:43:35.820Z,6.22
2022-11-25T11:46:14.614Z,6.00
2022-11-25T11:48:56.309Z,6.05
2022-11-25T11:51:37.966Z,5.85
2022-11-25T11:54:43.601Z,6.22
2022-11-25T11:57:22.072Z,6.65
2022-11-25T11:59:59.573Z,6.40
2022-11-25T12:02:47.657Z,7.18
2022-11-25T12:05:25.026Z,6.32
2022-11-25T12:08:06.141Z,7.38
2022-11-25T12:10:51.460Z,6.88
2022-11-25T12:13:23.952Z,6.65
2022-11-25T12:16:13.634Z,6.30
2022-11-25T12:19:02.344Z,6.75
2022-11-25T12:21:29.008Z,7.32
2022-11-25T12:24:14.523Z,6.90
2022-11-25T12:26:59.897Z,6.80
2022-11-25T12:29:45.738Z,6.40
2022-11-25T12:32:21.524Z,7.13
2022-11-25T12:35:11.468Z,6.70
2022-11-25T12:37:56.477Z,7.60
2022-11-25T12:40:36.112Z,7.15
2022-11-25T12:43:29.350Z,6.63
2022-11-25T12:46:10.284Z,6.57
2022-11-25T12:51:26.889Z,6.20
2022-11-25T12:54:17.451Z,6.55
2022-11-25T12:57:15.796Z,5.88
2022-11-25T13:00:17.532Z,6.57
2022-11-25T13:03:25.483Z,7.15
2022-11-25T13:06:15.659Z,6.13
2022-11-25T13:08:57.022Z,6.35
2022-11-25T13:11:26.893Z,6.70
2022-11-25T13:14:26.778Z,6.25
2022-11-25T13:16:57.442Z,6.60
2022-11-25T13:19:24.813Z,6.75
2022-11-25T13:22:23.985Z,6.80
2022-11-25T13:24:51.108Z,6.93
2022-11-25T13:27:50.197Z,7.07
2022-11-25T13:30:32.259Z,7.32
2022-11-25T13:33:11.202Z,7.03
2022-11-25T13:35:43.875Z,7.03
2022-11-25T13:38:29.528Z,6.05
2022-11-25T13:41:03.689Z,6.50
2022-11-25T13:43:30.619Z,6.35
2022-11-25T13:45:57.680Z,6.10
2022-11-25T13:48:30.647Z,6.38
2022-11-25T13:51:21.999Z,6.60
2022-11-25T13:54:00.994Z,6.32
2022-11-25T13:56:31.881Z,6.70
2022-11-25T14:01:45.835Z,8.20
2022-11-25T14:04:16.282Z,6.72
2022-11-25T14:07:10.150Z,7.40
2022-11-25T14:10:01.855Z,6.80
2022-11-25T14:12:56.562Z,6.57
2022-11-25T14:15:29.273Z,8.07
2022-11-25T14:18:14.142Z,6.60
2022-11-25T14:21:00.400Z,6.47
2022-11-25T14:23:30.183Z,6.32
2022-11-25T14:26:01.694Z,6.70
2022-11-25T14:28:39.110Z,7.05
2022-11-25T14:31:12.345Z,6.70
2022-11-25T14:34:00.855Z,7.97
2022-11-25T14:36:34.466Z,6.90
2022-11-25T14:39:24.616Z,6.95
2022-11-25T14:42:02.586Z,6.80
2022-11-25T14:44:44.504Z,6.70
2022-11-25T14:47:11.302Z,6.40
2022-11-25T14:50:00.095Z,8.23
2022-11-25T14:52:36.384Z,6.72
2022-11-25T14:55:07.281Z,6.57
2022-11-25T15:00:05.215Z,6.90
2022-11-25T15:02:35.146Z,7.25
2022-11-25T15:05:27.029Z,7.30
2022-11-25T15:07:59.069Z,6.57
2022-11-25T15:10:53.580Z,7.32
2022-11-25T15:13:32.087Z,8.18
2022-11-25T15:16:05.899Z,7.30
2022-11-25T15:18:34.950Z,7.50
2022-11-25T15:21:02.844Z,8.15
2022-11-25T15:23:37.699Z,6.72
2022-11-25T15:26:14.424Z,9.68
2022-11-25T15:28:42.076Z,7.07
2022-11-25T15:31:12.670Z,6.78
2022-11-25T15:33:40.930Z,6.80
2022-11-25T15:36:07.819Z,7.70
2022-11-25T15:38:45.971Z,6.50
2022-11-25T15:41:25.485Z,7.18
2022-11-25T15:43:55.478Z,6.75
2022-11-25T15:46:24.066Z,7.35
2022-11-25T15:48:53.334Z,6.88
2022-11-25T15:51:31.065Z,6.63
2022-11-25T15:54:31.734Z,6.85
2022-11-25T15:57:14.023Z,7.63
2022-11-25T16:00:11.794Z,7.05
2022-11-25T16:02:50.483Z,8.65
2022-11-25T16:05:49.283Z,6.18
2022-11-25T16:08:19.306Z,6.07
2022-11-25T16:10:46.009Z,7.90
2022-11-25T16:13:31.866Z,6.72
2022-11-25T16:16:07.715Z,6.32
2022-11-25T16:18:41.082Z,6.15
2022-11-25T16:21:17.920Z,6.85
2022-11-25T16:23:52.619Z,6.35
2022-11-25T16:26:29.863Z,6.18
2022-11-25T16:28:59.612Z,6.25
2022-11-25T16:31:27.444Z,7.70
2022-11-25T16:33:59.083Z,6.45
2022-11-25T16:36:25.839Z,7.68
2022-11-25T16:38:54.471Z,6.68
2022-11-25T16:41:25.128Z,6.45
2022-11-25T16:43:52.415Z,7.18
2022-11-25T16:46:20.105Z,6.80
2022-11-25T16:48:47.371Z,7.00
2022-11-25T16:51:19.724Z,5.82
2022-11-25T16:53:47.562Z,6.18
2022-11-25T16:56:26.786Z,6.32
2022-11-25T16:58:54.925Z,6.75
2022-11-25T17:01:24.856Z,6.65
2022-11-25T17:03:52.304Z,6.82
2022-11-25T17:06:25.121Z,7.00
2022-11-25T17:08:51.839Z,6.47
2022-11-25T17:11:31.530Z,6.32
2022-11-25T17:14:02.832Z,6.50
2022-11-25T17:16:30.847Z,6.00
2022-11-25T17:19:00.105Z,5.65
2022-11-25T17:21:28.847Z,6.43
2022-11-25T17:24:02.854Z,6.65
2022-11-25T17:26:38.689Z,5.60
2022-11-25T17:29:08.909Z,5.63
2022-11-25T17:31:38.025Z,6.68
2022-11-25T17:34:05.218Z,6.07
2022-11-25T17:36:32.129Z,6.43
2022-11-25T17:38:58.928Z,6.10
2022-11-25T17:41:28.791Z,7.50
2022-11-25T17:43:55.655Z,6.00
2022-11-25T17:46:24.651Z,6.60
2022-11-25T17:48:51.634Z,7.38
2022-11-25T17:51:18.316Z,6.95
2022-11-25T17:53:47.028Z,7.20
2022-11-25T17:56:32.307Z,6.50
2022-11-25T17:59:04.828Z,7.80
2022-11-25T18:01:31.934Z,6.88
2022-11-25T18:03:58.686Z,6.78
2022-11-25T18:06:25.476Z,7.10
2022-11-25T18:08:52.209Z,6.72
2022-11-25T18:11:19.609Z,7.43
2022-11-25T18:13:47.619Z,9.10
2022-11-25T18:16:17.951Z,7.40
2022-11-25T18:18:44.752Z,6.97
2022-11-25T18:21:12.687Z,7.47
2022-11-25T18:23:39.432Z,6.93
2022-11-25T18:26:06.970Z,7.80
2022-11-25T18:28:33.735Z,8.23
2022-11-25T18:31:04.088Z,8.45
2022-11-25T18:33:31.566Z,7.32
2022-11-25T18:35:58.391Z,7.35
2022-11-25T18:38:25.143Z,7.28
2022-11-25T18:40:53.776Z,7.43
2022-11-25T18:43:24.607Z,9.40
2022-11-25T18:45:53.351Z,8.10
2022-11-25T18:48:22.786Z,7.43
2022-11-25T18:50:51.484Z,6.93
2022-11-25T18:53:18.336Z,7.28
2022-11-25T18:55:46.111Z,7.25
2022-11-25T18:58:18.120Z,7.30
2022-11-25T19:00:48.522Z,8.23
2022-11-25T19:03:24.380Z,8.43
2022-11-25T19:05:54.161Z,9.75
2022-11-25T19:08:21.519Z,8.43
2022-11-25T19:10:49.542Z,8.25
2022-11-25T19:13:21.459Z,7.80
2022-11-25T19:15:48.643Z,8.82
2022-11-25T19:18:23.587Z,7.65
2022-11-25T19:20:50.447Z,8.18
2022-11-25T19:23:25.357Z,8.00
2022-11-25T19:25:54.629Z,7.25
2022-11-25T19:28:22.084Z,7.90
2022-11-25T19:30:49.052Z,8.52
2022-11-25T19:33:30.827Z,8.35
2022-11-25T19:35:58.449Z,8.77
2022-11-25T19:38:26.020Z,8.10
2022-11-25T19:40:57.388Z,8.18
2022-11-25T19:43:27.142Z,7.47
2022-11-25T19:45:55.755Z,7.78
2022-11-25T19:48:24.991Z,8.77
2022-11-25T19:51:02.283Z,8.20
2022-11-25T19:53:33.420Z,8.40
2022-11-25T19:56:03.903Z,8.70
2022-11-25T19:58:30.980Z,8.60
2022-11-25T20:01:00.738Z,7.20
2022-11-25T20:03:30.075Z,9.43
2022-11-25T20:05:56.965Z,8.88
2022-11-25T20:08:26.987Z,8.35
2022-11-25T20:10:54.809Z,8.23
2022-11-25T20:13:23.416Z,8.68
2022-11-25T20:15:51.126Z,8.57
2022-11-25T20:18:21.907Z,8.70
2022-11-25T20:20:55.934Z,8.23
2022-11-25T20:23:43.991Z,8.70
2022-11-25T20:26:26.865Z,9.93
2022-11-25T20:28:53.608Z,9.45
2022-11-25T20:31:20.393Z,9.95
2022-11-25T20:33:48.455Z,12.65
2022-11-25T20:36:19.144Z,8.95
2022-11-25T20:38:52.627Z,9.60
2022-11-25T20:41:24.332Z,8.50
2022-11-25T20:43:56.195Z,9.13
2022-11-25T20:46:30.873Z,9.82
2022-11-25T20:49:02.677Z,10.07
2022-11-25T20:51:29.640Z,10.32
2022-11-25T20:54:02.996Z,9.73
2022-11-25T20:56:30.204Z,9.50
2022-11-25T20:58:57.214Z,9.05
2022-11-25T21:01:25.111Z,9.73
2022-11-25T21:03:51.994Z,8.85
2022-11-25T21:06:28.727Z,9.80
2022-11-25T21:08:58.265Z,9.85
2022-11-25T21:11:27.701Z,9.60
2022-11-25T21:13:54.645Z,10.35
2022-11-25T21:16:21.539Z,10.25
2022-11-25T21:18:48.352Z,10.02
2022-11-25T21:21:31.541Z,11.02
2022-11-25T21:24:03.045Z,10.88
2022-11-25T21:26:29.872Z,10.07
2022-11-25T21:29:00.209Z,10.30
2022-11-25T21:31:27.117Z,10.93
2022-11-25T21:33:57.935Z,11.55
2022-11-25T21:36:28.175Z,10.25
2022-11-25T21:39:24.565Z,10.43
2022-11-25T21:41:51.449Z,10.93
2022-11-25T21:44:39.723Z,13.77
2022-11-25T21:47:21.798Z,11.63
2022-11-25T21:49:49.287Z,11.18
2022-11-25T21:52:16.404Z,11.52
2022-11-25T21:54:43.743Z,10.68
2022-11-25T21:57:18.694Z,11.18
2022-11-25T21:59:47.356Z,11.30
2022-11-25T22:02:18.648Z,10.88
2022-11-25T22:04:46.112Z,11.05
2022-11-25T22:07:13.274Z,12.00
2022-11-25T22:09:40.579Z,12.30
2022-11-25T22:12:16.205Z,11.82
2022-11-25T22:14:43.307Z,12.73
2022-11-25T22:17:14.418Z,12.02
2022-11-25T22:22:27.451Z,12.40
2022-11-25T22:24:54.172Z,12.13
2022-11-25T22:27:28.268Z,12.20
2022-11-25T22:29:55.535Z,12.68
2022-11-25T22:32:22.728Z,12.77
2022-11-25T22:34:49.479Z,13.45
2022-11-25T22:37:18.640Z,13.00
2022-11-25T22:39:45.690Z,12.57
2022-11-25T22:42:28.270Z,13.30
2022-11-25T22:44:57.457Z,14.00
2022-11-25T22:47:45.244Z,13.35
2022-11-25T22:50:27.771Z,13.18
2022-11-25T22:52:55.613Z,14.02
2022-11-25T22:55:25.165Z,13.52
2022-11-25T22:57:54.515Z,14.30
2022-11-25T23:00:37.646Z,13.77
2022-11-25T23:03:07.110Z,14.50
2022-11-25T23:05:36.868Z,13.15
2022-11-25T23:08:16.232Z,13.27
2022-11-25T23:10:43.719Z,13.32
2022-11-25T23:13:10.833Z,13.68
2022-11-25T23:15:38.055Z,13.15
2022-11-25T23:18:12.205Z,13.88
2022-11-25T23:20:40.087Z,13.70
2022-11-25T23:23:16.584Z,14.15
2022-11-25T23:25:44.109Z,15.38
2022-11-25T23:28:11.458Z,14.10
2022-11-25T23:30:40.524Z,14.68
2022-11-25T23:33:17.951Z,14.15
2022-11-25T23:35:44.768Z,13.43
2022-11-25T23:38:17.563Z,14.85
2022-11-25T23:40:44.388Z,14.93
2022-11-25T23:43:15.429Z,15.38
2022-11-25T23:48:21.097Z,14.55
2022-11-25T23:50:48.161Z,15.27
2022-11-25T23:53:32.205Z,15.43
2022-11-25T23:55:59.515Z,14.73
2022-11-25T23:58:26.322Z,14.65
